Time;durP1;ratioP1;P1;durP2;ratioP2;P2;SDS_P1;SDS_P2;PMS_P1;PMS_P2;Temp;Humidity;BMP_temperature;BMP_pressure;BME280_temperature;BME280_humidity;BME280_pressure;Samples;Min_cycle;Max_cycle;Signal;HPM_P1;HPM_P2
2022/05/06 00:01:56;;;;;;;4.20;3.40;;;;;;;24.25;38.56;100743.41;20453326;28;97308;-77
2022/05/06 00:11:57;;;;;;;3.50;2.80;;;;;;;24.18;38.79;100737.81;20448560;28;98495;-77
2022/05/06 00:21:58;;;;;;;4.53;3.17;;;;;;;24.14;38.88;100744.31;20451141;28;97115;-76
2022/05/06 00:31:59;;;;;;;4.20;3.05;;;;;;;24.11;38.79;100744.59;20442380;28;98754;-77
2022/05/06 00:41:59;;;;;;;3.45;2.90;;;;;;;24.10;38.90;100756.97;20448837;28;102061;-77
2022/05/06 00:52:00;;;;;;;3.50;3.10;;;;;;;24.11;39.24;100744.59;20451866;28;97250;-77
2022/05/06 01:02:01;;;;;;;4.07;2.85;;;;;;;24.08;39.13;100750.13;20439549;28;100213;-78
2022/05/06 01:12:02;;;;;;;3.77;3.07;;;;;;;24.11;39.10;100744.59;20445868;28;97799;-78
2022/05/06 01:22:03;;;;;;;4.70;2.90;;;;;;;24.08;39.37;100753.63;20450646;28;97963;-77
2022/05/06 01:32:04;;;;;;;4.57;3.03;;;;;;;24.09;39.26;100763.22;20432962;28;99791;-76
2022/05/06 01:42:07;;;;;;;4.10;2.75;;;;;;;24.07;39.40;100762.53;20444476;28;96890;-77
2022/05/06 01:52:14;;;;;;;2.60;2.40;;;;;;;24.05;39.51;100756.50;20429634;28;97410;-77
2022/05/06 02:02:14;;;;;;;3.03;2.70;;;;;;;24.10;39.35;100750.84;20442822;28;100463;-77
2022/05/06 02:12:15;;;;;;;3.75;2.55;;;;;;;24.07;39.44;100751.94;20446904;28;99989;-77
2022/05/06 02:22:16;;;;;;;3.13;2.77;;;;;;;24.07;39.53;100746.66;20446574;28;97242;-77
2022/05/06 02:42:36;;;;;;;3.97;3.00;;;;;;;24.06;39.53;100744.97;20440257;28;98085;-77
2022/05/06 02:52:36;;;;;;;3.23;2.60;;;;;;;24.07;39.45;100748.44;20444124;28;97013;-77
2022/05/06 03:02:37;;;;;;;4.35;2.90;;;;;;;24.02;39.89;100751.47;20437291;28;99790;-77
2022/05/06 03:12:43;;;;;;;5.47;2.97;;;;;;;24.02;39.76;100735.59;20440096;28;97192;-77
2022/05/06 03:22:47;;;;;;;3.45;2.70;;;;;;;24.06;39.66;100747.63;20419613;28;98675;-77
2022/05/06 03:32:48;;;;;;;2.95;2.65;;;;;;;24.04;39.88;100752.19;20427332;28;98226;-77
2022/05/06 03:42:49;;;;;;;3.27;2.60;;;;;;;24.06;40.17;100766.13;20436946;28;97368;-77
2022/05/06 03:52:51;;;;;;;3.67;2.80;;;;;;;24.03;40.03;100763.72;20442454;28;98495;-77
2022/05/06 04:02:51;;;;;;;2.87;2.57;;;;;;;24.06;39.44;100759.97;20393274;28;98211;-78
2022/05/06 04:12:53;;;;;;;2.92;2.50;;;;;;;24.06;39.88;100768.78;20455675;28;97648;-80
2022/05/06 04:33:12;;;;;;;3.42;2.90;;;;;;;24.12;40.87;100815.03;20430339;28;98323;-75
2022/05/06 04:43:13;;;;;;;9.80;2.90;;;;;;;24.18;40.89;100811.91;20426936;28;97578;-75
2022/05/06 04:53:14;;;;;;;11.00;3.80;;;;;;;24.18;40.96;100817.19;20404010;28;100367;-74
2022/05/06 05:03:15;;;;;;;10.43;3.67;;;;;;;24.20;41.46;100822.34;20434015;28;97259;-76
2022/05/06 05:13:16;;;;;;;13.02;4.70;;;;;;;24.20;42.44;100823.16;20433654;28;99127;-75
2022/05/06 05:23:16;;;;;;;15.35;4.60;;;;;;;24.13;41.39;100838.72;20428176;28;98173;-76
2022/05/06 05:33:17;;;;;;;12.13;4.38;;;;;;;24.15;41.32;100833.31;20431840;28;97378;-77
2022/05/06 05:53:47;;;;;;;10.80;3.38;;;;;;;24.16;41.98;100842.06;20449297;28;96898;-77
2022/05/06 06:03:47;;;;;;;7.40;3.42;;;;;;;24.15;41.56;100838.59;20452226;28;98274;-77
2022/05/06 06:13:48;;;;;;;8.23;3.70;;;;;;;24.18;41.82;100851.59;20462666;28;97125;-77
2022/05/06 06:23:48;;;;;;;6.20;3.35;;;;;;;24.19;41.48;100847.13;20472020;28;97333;-77
2022/05/06 06:33:49;;;;;;;8.20;3.92;;;;;;;24.20;41.82;100859.38;20448532;28;97426;-77
2022/05/06 06:43:50;;;;;;;6.22;3.13;;;;;;;24.21;41.55;100863.72;20440896;28;97958;-75
2022/05/06 06:53:53;;;;;;;8.70;3.55;;;;;;;24.19;40.83;100855.88;20450919;28;96996;-76
2022/05/06 07:03:54;;;;;;;7.70;3.50;;;;;;;24.18;40.22;100853.38;20453935;28;97240;-76
2022/05/06 07:13:55;;;;;;;6.57;3.37;;;;;;;24.15;40.65;100854.47;20449794;28;97319;-76
2022/05/06 07:23:55;;;;;;;9.25;3.90;;;;;;;24.13;39.90;100861.69;20439928;28;97083;-74
2022/05/06 07:33:56;;;;;;;3.42;3.15;;;;;;;24.09;40.04;100857.63;20425359;28;97171;-76
2022/05/06 07:43:56;;;;;;;5.25;3.70;;;;;;;24.07;39.58;100863.06;20441027;28;97743;-75
2022/05/06 07:53:57;;;;;;;4.80;3.85;;;;;;;24.10;40.60;100864.59;20469623;28;97587;-76
2022/05/06 08:14:17;;;;;;;4.03;3.40;;;;;;;24.12;40.52;100849.41;20474366;28;96950;-76
2022/05/06 08:24:19;;;;;;;6.43;3.57;;;;;;;24.11;40.16;100856.53;20460452;28;98453;-76
2022/05/06 08:34:19;;;;;;;8.97;4.40;;;;;;;24.09;39.67;100858.47;20458847;28;101342;-77
2022/05/06 08:54:39;;;;;;;7.43;4.28;;;;;;;23.85;38.47;100860.44;20457543;28;97165;-76
2022/05/06 09:04:39;;;;;;;7.63;3.85;;;;;;;23.94;39.05;100865.03;20440657;28;97698;-76
2022/05/06 09:24:59;;;;;;;6.85;3.92;;;;;;;23.97;39.42;100849.75;20469285;28;97773;-77
2022/05/06 09:35:12;;;;;;;8.93;3.80;;;;;;;24.03;39.60;100853.66;20455606;28;97259;-75
2022/05/06 09:45:27;;;;;;;4.53;3.47;;;;;;;24.02;39.65;100848.50;20468310;28;97040;-77
2022/05/06 09:55:29;;;;;;;6.03;3.47;;;;;;;24.09;39.39;100842.56;20462944;28;96841;-75
2022/05/06 10:05:33;;;;;;;6.65;3.55;;;;;;;24.22;39.66;100837.13;20459437;28;97167;-75
2022/05/06 10:15:34;;;;;;;5.07;3.00;;;;;;;24.32;38.29;100841.66;20467129;28;96965;-75
2022/05/06 10:25:40;;;;;;;4.60;3.40;;;;;;;24.41;38.61;100836.44;20450839;28;97800;-75
2022/05/06 10:35:46;;;;;;;13.63;6.60;;;;;;;24.51;38.55;100830.34;20418807;28;98153;-77
2022/05/06 10:45:46;;;;;;;13.93;7.85;;;;;;;24.66;39.22;100817.63;20440336;28;97395;-76
2022/05/06 10:55:47;;;;;;;10.95;5.60;;;;;;;24.73;39.30;100810.84;20368180;28;97799;-73
2022/05/06 11:05:50;;;;;;;8.57;4.88;;;;;;;24.83;39.01;100803.78;20376104;28;97528;-76
2022/05/06 11:15:51;;;;;;;9.38;4.45;;;;;;;24.89;39.06;100797.97;20364702;28;97793;-75
2022/05/06 11:25:52;;;;;;;4.93;3.77;;;;;;;24.97;38.94;100786.69;20378342;28;97312;-76
2022/05/06 11:36:06;;;;;;;8.85;3.88;;;;;;;25.00;38.44;100780.28;20444337;28;99958;-74
2022/05/06 11:56:33;;;;;;;6.43;3.95;;;;;;;25.00;38.45;100770.53;20445502;28;98453;-74
2022/05/06 12:06:40;;;;;;;5.33;3.60;;;;;;;25.08;38.04;100769.84;20426112;28;97538;-76
2022/05/06 12:16:59;;;;;;;3.85;3.42;;;;;;;25.10;37.73;100766.09;20456684;28;97208;-75
2022/05/06 12:26:59;;;;;;;4.25;3.28;;;;;;;25.14;37.71;100755.22;20455688;28;101427;-76
2022/05/06 12:37:12;;;;;;;3.53;3.08;;;;;;;25.18;37.96;100751.31;20445157;28;97320;-75
2022/05/06 12:57:38;;;;;;;4.00;3.13;;;;;;;25.18;37.23;100728.31;20439429;28;98629;-76
2022/05/06 13:07:39;;;;;;;4.63;2.90;;;;;;;25.19;37.35;100729.16;20421757;28;97900;-76
2022/05/06 13:17:39;;;;;;;7.37;3.03;;;;;;;25.20;37.34;100722.88;20428985;28;97205;-75
2022/05/06 13:27:39;;;;;;;8.70;3.47;;;;;;;25.20;37.82;100720.22;20425558;28;97551;-75
2022/05/06 13:37:40;;;;;;;10.80;3.33;;;;;;;25.22;37.90;100705.03;20404219;28;97750;-75
2022/05/06 13:47:41;;;;;;;6.07;3.35;;;;;;;25.28;37.85;100701.84;20431211;28;97002;-75
2022/05/06 14:08:01;;;;;;;6.15;2.88;;;;;;;25.29;37.87;100692.06;20449806;28;97918;-75
2022/05/06 14:18:02;;;;;;;11.95;3.45;;;;;;;25.33;37.56;100686.34;20442893;28;97816;-75
2022/05/06 14:28:02;;;;;;;8.20;3.47;;;;;;;25.35;37.42;100676.44;20452964;28;100840;-76
2022/05/06 14:38:03;;;;;;;4.22;3.13;;;;;;;25.36;37.55;100682.56;20435484;28;98470;-75
2022/05/06 14:48:05;;;;;;;7.33;3.10;;;;;;;25.33;37.08;100675.75;20442954;28;96958;-74
2022/05/06 14:58:07;;;;;;;;;;;;;;;25.35;37.09;100676.44;20436612;28;97247;-75
2022/05/06 15:08:08;;;;;;;5.13;3.20;;;;;;;25.36;37.53;100667.50;20433755;28;97159;-75
2022/05/06 15:28:28;;;;;;;4.20;3.15;;;;;;;25.38;37.85;100651.50;20435921;28;100344;-75
2022/05/06 15:38:30;;;;;;;3.50;3.20;;;;;;;25.38;37.85;100659.44;20446422;28;98523;-76
2022/05/06 15:48:37;;;;;;;4.60;3.60;;;;;;;25.32;38.12;100652.03;20413431;28;101243;-74
2022/05/06 15:58:38;;;;;;;5.15;3.28;;;;;;;25.32;38.01;100652.84;20429609;28;97684;-75
2022/05/06 16:08:39;;;;;;;4.60;3.40;;;;;;;25.29;37.70;100661.06;20435770;28;98011;-75
2022/05/06 16:18:41;;;;;;;5.00;3.20;;;;;;;25.21;37.64;100653.81;20425320;28;98293;-76
2022/05/06 16:28:42;;;;;;;8.23;3.17;;;;;;;25.26;37.91;100656.88;20417079;28;97528;-77
2022/05/06 16:38:46;;;;;;;3.20;2.90;;;;;;;25.25;37.80;100651.75;20412640;28;97003;-75
2022/05/06 16:48:47;;;;;;;6.25;3.13;;;;;;;25.21;37.49;100653.81;20426921;28;97198;-73
2022/05/06 16:58:47;;;;;;;4.03;3.55;;;;;;;25.27;37.83;100655.09;20417797;28;98738;-74
2022/05/06 17:08:48;;;;;;;5.43;3.33;;;;;;;25.25;37.78;100657.91;20436985;28;99244;-75
2022/05/06 17:18:49;;;;;;;12.18;4.82;;;;;;;25.26;39.19;100669.31;20416464;28;97642;-75
2022/05/06 17:28:49;;;;;;;6.20;4.03;;;;;;;25.25;38.18;100670.28;20397689;28;98796;-75
2022/05/06 17:38:50;;;;;;;11.97;4.30;;;;;;;25.21;38.23;100669.72;20417967;28;100663;-75
2022/05/06 17:48:51;;;;;;;8.43;4.00;;;;;;;25.16;38.21;100676.41;20430221;28;100163;-75
2022/05/06 17:58:55;;;;;;;4.60;3.57;;;;;;;25.12;38.27;100685.63;20433462;28;100852;-75
2022/05/06 18:08:56;;;;;;;7.32;3.85;;;;;;;25.01;38.42;100698.03;20398539;28;97296;-75
2022/05/06 18:18:56;;;;;;;5.63;3.60;;;;;;;24.93;38.22;100697.88;20408733;28;98280;-75
2022/05/06 18:28:57;;;;;;;6.63;4.28;;;;;;;24.87;38.37;100707.19;20404050;28;99537;-75
2022/05/06 18:38:57;;;;;;;5.45;4.18;;;;;;;24.80;39.20;100708.69;20401086;28;101295;-74
2022/05/06 18:48:58;;;;;;;5.47;4.07;;;;;;;24.92;38.94;100723.50;20393012;28;99443;-73
2022/05/06 18:59:02;;;;;;;8.15;4.07;;;;;;;24.96;38.87;100726.72;20403743;28;97655;-73
2022/05/06 19:09:02;;;;;;;7.53;4.22;;;;;;;24.91;39.16;100729.78;20431825;28;98034;-74
2022/05/06 19:19:06;;;;;;;5.63;4.03;;;;;;;24.89;38.95;100729.09;20419154;28;100563;-73
2022/05/06 19:29:07;;;;;;;8.07;3.72;;;;;;;24.78;39.74;100737.16;20404073;28;100990;-74
2022/05/06 19:39:07;;;;;;;6.95;3.90;;;;;;;24.79;40.11;100738.78;20436132;28;96825;-75
2022/05/06 19:49:08;;;;;;;10.27;4.00;;;;;;;24.85;40.20;100745.38;20448988;28;100304;-75
2022/05/06 19:59:08;;;;;;;8.82;3.65;;;;;;;24.79;40.37;100744.09;20409691;28;96923;-75
2022/05/06 20:09:09;;;;;;;6.53;4.03;;;;;;;24.75;40.43;100745.34;20348446;28;97888;-75
2022/05/06 20:19:09;;;;;;;5.57;3.80;;;;;;;24.69;40.67;100741.41;20366285;28;98275;-75
2022/05/06 20:29:10;;;;;;;5.53;3.40;;;;;;;24.71;40.68;100742.13;20371831;28;98131;-75
2022/05/06 20:39:11;;;;;;;7.70;3.60;;;;;;;24.70;41.06;100735.16;20372925;28;97526;-75
2022/05/06 20:49:11;;;;;;;8.07;3.90;;;;;;;24.73;40.84;100739.34;20341148;28;98407;-75
2022/05/06 20:59:20;;;;;;;6.32;3.78;;;;;;;24.74;41.01;100748.97;20358332;28;97210;-75
2022/05/06 21:19:40;;;;;;;7.07;3.85;;;;;;;24.68;41.28;100750.34;20415216;28;98137;-75
2022/05/06 21:29:40;;;;;;;4.13;3.47;;;;;;;24.67;41.28;100753.97;20391013;28;101265;-75
2022/05/06 21:39:41;;;;;;;4.80;3.42;;;;;;;24.68;41.22;100742.41;20419246;28;100203;-75
2022/05/06 21:49:41;;;;;;;4.13;3.30;;;;;;;24.65;41.62;100739.16;20431179;28;101357;-75
2022/05/06 21:59:42;;;;;;;4.93;3.30;;;;;;;24.64;41.37;100740.94;20420437;28;98947;-75
2022/05/06 22:09:43;;;;;;;4.72;3.45;;;;;;;24.65;41.62;100744.44;20435272;28;97840;-75
2022/05/06 22:19:43;;;;;;;5.35;3.50;;;;;;;24.59;41.84;100729.94;20427799;28;98641;-75
2022/05/06 22:29:44;;;;;;;7.10;4.03;;;;;;;24.59;41.79;100733.41;20426082;28;100684;-75
2022/05/06 22:39:44;;;;;;;7.68;3.63;;;;;;;24.55;42.03;100734.66;20425662;28;97256;-75
2022/05/06 22:49:45;;;;;;;4.05;3.40;;;;;;;24.55;41.97;100739.94;20444451;28;97927;-75
2022/05/06 22:59:46;;;;;;;4.15;3.45;;;;;;;24.54;42.03;100742.72;20441763;28;97159;-75
2022/05/06 23:09:46;;;;;;;3.95;3.45;;;;;;;24.54;42.33;100742.72;20438187;28;98196;-75
2022/05/06 23:19:48;;;;;;;3.72;3.38;;;;;;;24.56;42.50;100748.72;20435896;28;97157;-76
2022/05/06 23:29:48;;;;;;;3.97;3.40;;;;;;;24.54;42.29;100743.56;20440209;27;97747;-76
2022/05/06 23:39:49;;;;;;;3.80;3.00;;;;;;;24.53;42.61;100741.03;20434200;28;98965;-76
2022/05/06 23:49:50;;;;;;;4.45;3.40;;;;;;;24.52;42.52;100739.38;20441975;28;98105;-76
2022/05/06 23:59:52;;;;;;;4.30;3.30;;;;;;;24.51;42.47;100738.53;20435579;28;97172;-75
